< Typhoon 202020 2020 Season Typhoon 202022 >
Typhoon 202021 (ETAU)
General InformationDetailed Track InformationTrack Information on Google MapsForecast History on Google MapsAccess Analytics MapList of All Images || NewsDisaster Info.WeblogTrackbackTyphoon FrontTwiphoonTyphoon Now!Typhoon ImaginationJMA Disaster Info. XMLResourceGoogle EarthGE AnimationAtom FeedGeoJSON
Detalied Best Track Wind (Time Zone = UTC)
Year Month Day Hour Lat. Long. Wind (kt) Gust (kt) Direc. of Major Storm Axis Radius of Major Storm Axis (nm) Radius of Minor Storm Axis (nm) Direc. of Major Gale Axis Radius of Major Gale Axis (nm) Radius of Minor Gale Axis (nm) Image
2020 11 8 00 12.8 121.5 30 45 - - - - - - Image
2020 11 8 03 12.7 120.7 30 45 - - - - - - Image
2020 11 8 06 13.6 120.0 30 45 - - - - - - Image
2020 11 8 09 12.8 119.2 30 45 - - - - - - Image
2020 11 8 12 12.7 118.2 30 45 - - - - - - Image
2020 11 8 15 12.7 117.1 30 45 - - - - - - Image
2020 11 8 18 13.0 115.4 35 50 - - - NW 150 90 Image
2020 11 8 21 13.1 114.7 35 50 - - - NW 150 90 Image
2020 11 9 00 13.1 113.8 40 60 - - - NW 150 90 Image
2020 11 9 03 13.1 112.7 40 60 - - - NW 180 90 Image
2020 11 9 06 13.0 112.4 45 65 - - - NW 180 90 Image
2020 11 9 09 12.8 111.9 45 65 - - - NW 180 90 Image
2020 11 9 12 12.1 111.6 40 60 - - - NW 180 90 Image
2020 11 9 15 11.9 111.4 40 60 - - - NW 180 90 Image
2020 11 9 18 11.9 111.2 40 60 - - - NW 180 90 Image
2020 11 9 21 12.1 111.1 40 60 - - - NW 180 90 Image
2020 11 10 00 12.2 110.3 35 50 - - - N 180 90 Image
2020 11 10 03 12.2 109.6 35 50 - - - N 180 90 Image
2020 11 10 06 12.6 109.1 35 50 - - - N 180 90 Image
2020 11 10 09 13.0 109.0 0 0 - - - - - - Image
Japan Meteorological Agency Best Track Data | Correction Date : 2020-11-10
< Typhoon 202020 2020 Season Typhoon 202022 >

Help